sensor_id;sensor_type;location;lat;lon;timestamp;temperature;humidity
28839;DHT22;15971;50.772;6.100;2022-08-19T00:00:04;19.50;99.90
28839;DHT22;15971;50.772;6.100;2022-08-19T00:02:29;19.50;99.90
28839;DHT22;15971;50.772;6.100;2022-08-19T00:04:55;19.50;99.90
28839;DHT22;15971;50.772;6.100;2022-08-19T00:07:21;19.60;99.90
28839;DHT22;15971;50.772;6.100;2022-08-19T00:09:47;19.40;99.90
28839;DHT22;15971;50.772;6.100;2022-08-19T00:12:12;19.50;99.90
28839;DHT22;15971;50.772;6.100;2022-08-19T00:14:39;19.50;99.90
28839;DHT22;15971;50.772;6.100;2022-08-19T00:17:05;19.40;99.90
28839;DHT22;15971;50.772;6.100;2022-08-19T00:19:32;19.50;99.90
28839;DHT22;15971;50.772;6.100;2022-08-19T00:21:58;19.50;99.90
28839;DHT22;15971;50.772;6.100;2022-08-19T00:24:24;19.40;99.90
28839;DHT22;15971;50.772;6.100;2022-08-19T00:26:51;19.30;99.90
28839;DHT22;15971;50.772;6.100;2022-08-19T00:29:19;19.30;99.90
28839;DHT22;15971;50.772;6.100;2022-08-19T00:31:45;19.20;99.90
28839;DHT22;15971;50.772;6.100;2022-08-19T00:34:12;19.20;99.90
28839;DHT22;15971;50.772;6.100;2022-08-19T00:36:39;19.20;99.90
28839;DHT22;15971;50.772;6.100;2022-08-19T00:39:05;19.20;99.90
28839;DHT22;15971;50.772;6.100;2022-08-19T00:41:31;19.10;99.90
28839;DHT22;15971;50.772;6.100;2022-08-19T00:44:06;19.10;99.90
28839;DHT22;15971;50.772;6.100;2022-08-19T00:46:33;19.10;99.90
28839;DHT22;15971;50.772;6.100;2022-08-19T00:49:09;19.00;99.90
28839;DHT22;15971;50.772;6.100;2022-08-19T00:51:35;19.00;99.90
28839;DHT22;15971;50.772;6.100;2022-08-19T00:54:02;18.90;99.90
28839;DHT22;15971;50.772;6.100;2022-08-19T00:56:29;18.90;99.90
28839;DHT22;15971;50.772;6.100;2022-08-19T00:58:58;18.90;99.90
28839;DHT22;15971;50.772;6.100;2022-08-19T01:01:24;18.80;99.90
28839;DHT22;15971;50.772;6.100;2022-08-19T01:03:50;18.80;99.90
28839;DHT22;15971;50.772;6.100;2022-08-19T01:06:16;18.80;99.90
28839;DHT22;15971;50.772;6.100;2022-08-19T01:08:41;18.70;99.90
28839;DHT22;15971;50.772;6.100;2022-08-19T01:11:08;18.70;99.90
28839;DHT22;15971;50.772;6.100;2022-08-19T01:13:34;18.70;99.90
28839;DHT22;15971;50.772;6.100;2022-08-19T01:16:03;18.50;99.90
28839;DHT22;15971;50.772;6.100;2022-08-19T01:18:32;18.60;99.90
28839;DHT22;15971;50.772;6.100;2022-08-19T01:21:02;18.60;99.90
28839;DHT22;15971;50.772;6.100;2022-08-19T01:23:31;18.60;99.90
28839;DHT22;15971;50.772;6.100;2022-08-19T01:26:16;18.60;99.90
28839;DHT22;15971;50.772;6.100;2022-08-19T01:28:44;18.60;99.90
28839;DHT22;15971;50.772;6.100;2022-08-19T01:31:16;18.60;99.90
28839;DHT22;15971;50.772;6.100;2022-08-19T01:33:42;18.60;99.90
28839;DHT22;15971;50.772;6.100;2022-08-19T01:36:11;18.60;99.90
28839;DHT22;15971;50.772;6.100;2022-08-19T01:38:41;18.60;99.90
28839;DHT22;15971;50.772;6.100;2022-08-19T01:41:08;18.60;99.90
28839;DHT22;15971;50.772;6.100;2022-08-19T01:43:34;18.50;99.90
28839;DHT22;15971;50.772;6.100;2022-08-19T01:46:00;18.50;99.90
28839;DHT22;15971;50.772;6.100;2022-08-19T01:48:26;18.60;99.90
28839;DHT22;15971;50.772;6.100;2022-08-19T01:50:54;18.70;99.90
28839;DHT22;15971;50.772;6.100;2022-08-19T01:53:21;18.70;99.90
28839;DHT22;15971;50.772;6.100;2022-08-19T01:55:46;18.80;99.90
28839;DHT22;15971;50.772;6.100;2022-08-19T01:58:21;18.80;99.90
28839;DHT22;15971;50.772;6.100;2022-08-19T02:00:48;18.80;99.90
28839;DHT22;15971;50.772;6.100;2022-08-19T02:03:14;18.70;99.90
28839;DHT22;15971;50.772;6.100;2022-08-19T02:05:40;18.70;99.90
28839;DHT22;15971;50.772;6.100;2022-08-19T02:08:07;18.70;99.90
28839;DHT22;15971;50.772;6.100;2022-08-19T02:10:33;18.70;99.90
28839;DHT22;15971;50.772;6.100;2022-08-19T02:12:59;18.70;99.90
28839;DHT22;15971;50.772;6.100;2022-08-19T02:15:24;18.70;99.90
28839;DHT22;15971;50.772;6.100;2022-08-19T02:17:51;18.70;99.90
28839;DHT22;15971;50.772;6.100;2022-08-19T02:20:17;18.70;99.90
28839;DHT22;15971;50.772;6.100;2022-08-19T02:22:43;18.80;99.90
28839;DHT22;15971;50.772;6.100;2022-08-19T02:25:13;18.80;99.90
28839;DHT22;15971;50.772;6.100;2022-08-19T02:27:40;18.80;99.90
28839;DHT22;15971;50.772;6.100;2022-08-19T02:30:09;18.80;99.90
28839;DHT22;15971;50.772;6.100;2022-08-19T02:32:35;18.70;99.90
28839;DHT22;15971;50.772;6.100;2022-08-19T02:35:01;18.60;99.90
28839;DHT22;15971;50.772;6.100;2022-08-19T02:37:27;18.60;99.90
28839;DHT22;15971;50.772;6.100;2022-08-19T02:40:11;18.60;99.90
28839;DHT22;15971;50.772;6.100;2022-08-19T02:42:38;18.70;99.90
28839;DHT22;15971;50.772;6.100;2022-08-19T02:45:04;18.60;99.90
28839;DHT22;15971;50.772;6.100;2022-08-19T02:47:30;18.60;99.90
28839;DHT22;15971;50.772;6.100;2022-08-19T02:49:55;18.60;99.90
28839;DHT22;15971;50.772;6.100;2022-08-19T02:52:21;18.50;99.90
28839;DHT22;15971;50.772;6.100;2022-08-19T02:54:48;18.60;99.90
28839;DHT22;15971;50.772;6.100;2022-08-19T02:57:14;18.50;99.90
28839;DHT22;15971;50.772;6.100;2022-08-19T02:59:40;18.60;99.90
28839;DHT22;15971;50.772;6.100;2022-08-19T03:02:05;18.60;99.90
28839;DHT22;15971;50.772;6.100;2022-08-19T03:04:31;18.60;99.90
28839;DHT22;15971;50.772;6.100;2022-08-19T03:06:57;18.50;99.90
28839;DHT22;15971;50.772;6.100;2022-08-19T03:09:22;18.60;99.90
28839;DHT22;15971;50.772;6.100;2022-08-19T03:11:48;18.50;99.90
28839;DHT22;15971;50.772;6.100;2022-08-19T03:14:13;18.50;99.90
28839;DHT22;15971;50.772;6.100;2022-08-19T03:16:42;18.60;99.90
28839;DHT22;15971;50.772;6.100;2022-08-19T03:19:08;18.60;99.90
28839;DHT22;15971;50.772;6.100;2022-08-19T03:21:34;18.60;99.90
28839;DHT22;15971;50.772;6.100;2022-08-19T03:24:03;18.60;99.90
28839;DHT22;15971;50.772;6.100;2022-08-19T03:26:30;18.60;99.90
28839;DHT22;15971;50.772;6.100;2022-08-19T03:28:56;18.60;99.90
28839;DHT22;15971;50.772;6.100;2022-08-19T03:31:22;18.70;99.90
28839;DHT22;15971;50.772;6.100;2022-08-19T03:33:49;18.70;99.90
28839;DHT22;15971;50.772;6.100;2022-08-19T03:36:21;18.70;99.90
28839;DHT22;15971;50.772;6.100;2022-08-19T03:38:54;18.70;99.90
28839;DHT22;15971;50.772;6.100;2022-08-19T03:41:26;18.70;99.90
28839;DHT22;15971;50.772;6.100;2022-08-19T03:43:53;18.70;99.90
28839;DHT22;15971;50.772;6.100;2022-08-19T03:46:22;18.60;99.90
28839;DHT22;15971;50.772;6.100;2022-08-19T03:48:50;18.60;99.90
28839;DHT22;15971;50.772;6.100;2022-08-19T03:51:29;18.60;99.90
28839;DHT22;15971;50.772;6.100;2022-08-19T03:53:57;18.60;99.90
28839;DHT22;15971;50.772;6.100;2022-08-19T03:56:24;18.60;99.90
28839;DHT22;15971;50.772;6.100;2022-08-19T03:58:54;18.50;99.90
28839;DHT22;15971;50.772;6.100;2022-08-19T04:01:23;18.40;99.90
28839;DHT22;15971;50.772;6.100;2022-08-19T04:03:49;18.50;99.90
28839;DHT22;15971;50.772;6.100;2022-08-19T04:06:29;18.50;99.90
28839;DHT22;15971;50.772;6.100;2022-08-19T04:08:56;18.50;99.90
28839;DHT22;15971;50.772;6.100;2022-08-19T04:11:25;18.50;99.90
28839;DHT22;15971;50.772;6.100;2022-08-19T04:13:53;18.50;99.90
28839;DHT22;15971;50.772;6.100;2022-08-19T04:16:23;18.50;99.90
28839;DHT22;15971;50.772;6.100;2022-08-19T04:18:50;18.50;99.90
28839;DHT22;15971;50.772;6.100;2022-08-19T04:21:18;18.40;99.90
28839;DHT22;15971;50.772;6.100;2022-08-19T04:23:45;18.30;99.90
28839;DHT22;15971;50.772;6.100;2022-08-19T04:26:15;18.30;99.90
28839;DHT22;15971;50.772;6.100;2022-08-19T04:28:44;18.20;99.90
28839;DHT22;15971;50.772;6.100;2022-08-19T04:31:15;18.30;99.90
28839;DHT22;15971;50.772;6.100;2022-08-19T04:33:41;18.30;99.90
28839;DHT22;15971;50.772;6.100;2022-08-19T04:36:07;18.30;99.90
28839;DHT22;15971;50.772;6.100;2022-08-19T04:38:35;18.30;99.90
28839;DHT22;15971;50.772;6.100;2022-08-19T04:41:02;18.30;99.90
28839;DHT22;15971;50.772;6.100;2022-08-19T04:43:47;18.30;99.90
28839;DHT22;15971;50.772;6.100;2022-08-19T04:46:14;18.30;99.90
28839;DHT22;15971;50.772;6.100;2022-08-19T04:48:40;18.40;99.90
28839;DHT22;15971;50.772;6.100;2022-08-19T04:51:08;18.40;99.90
28839;DHT22;15971;50.772;6.100;2022-08-19T04:53:36;18.30;99.90
28839;DHT22;15971;50.772;6.100;2022-08-19T04:56:11;18.20;99.90
28839;DHT22;15971;50.772;6.100;2022-08-19T04:58:37;18.20;99.90
28839;DHT22;15971;50.772;6.100;2022-08-19T05:01:04;18.20;99.90
28839;DHT22;15971;50.772;6.100;2022-08-19T05:03:30;18.40;99.90
28839;DHT22;15971;50.772;6.100;2022-08-19T05:06:04;18.60;99.90
28839;DHT22;15971;50.772;6.100;2022-08-19T05:08:34;18.80;99.90
28839;DHT22;15971;50.772;6.100;2022-08-19T05:11:00;18.90;99.90
28839;DHT22;15971;50.772;6.100;2022-08-19T05:13:26;19.00;99.90
28839;DHT22;15971;50.772;6.100;2022-08-19T05:15:58;19.00;99.90
28839;DHT22;15971;50.772;6.100;2022-08-19T05:18:24;19.10;99.90
28839;DHT22;15971;50.772;6.100;2022-08-19T05:21:11;19.20;99.90
28839;DHT22;15971;50.772;6.100;2022-08-19T05:23:56;19.30;99.90
28839;DHT22;15971;50.772;6.100;2022-08-19T05:26:23;19.20;99.90
28839;DHT22;15971;50.772;6.100;2022-08-19T05:28:49;19.30;99.90
28839;DHT22;15971;50.772;6.100;2022-08-19T05:31:15;19.40;99.90
28839;DHT22;15971;50.772;6.100;2022-08-19T05:33:41;19.40;99.90
28839;DHT22;15971;50.772;6.100;2022-08-19T05:36:06;19.50;99.90
28839;DHT22;15971;50.772;6.100;2022-08-19T05:38:34;19.40;99.90
28839;DHT22;15971;50.772;6.100;2022-08-19T05:41:05;19.40;99.90
28839;DHT22;15971;50.772;6.100;2022-08-19T05:43:31;19.40;99.90
28839;DHT22;15971;50.772;6.100;2022-08-19T05:45:57;19.50;99.90
28839;DHT22;15971;50.772;6.100;2022-08-19T05:48:23;19.50;99.90
28839;DHT22;15971;50.772;6.100;2022-08-19T05:50:49;19.50;99.90
28839;DHT22;15971;50.772;6.100;2022-08-19T05:53:16;19.60;99.90
28839;DHT22;15971;50.772;6.100;2022-08-19T05:55:41;19.50;99.90
28839;DHT22;15971;50.772;6.100;2022-08-19T05:58:07;19.50;99.90
28839;DHT22;15971;50.772;6.100;2022-08-19T06:00:35;19.40;99.90
28839;DHT22;15971;50.772;6.100;2022-08-19T06:03:01;19.50;99.90
28839;DHT22;15971;50.772;6.100;2022-08-19T06:05:32;19.40;99.90
28839;DHT22;15971;50.772;6.100;2022-08-19T06:07:58;19.40;99.90
28839;DHT22;15971;50.772;6.100;2022-08-19T06:10:24;19.50;99.90
28839;DHT22;15971;50.772;6.100;2022-08-19T06:12:50;19.60;99.90
28839;DHT22;15971;50.772;6.100;2022-08-19T06:15:16;19.60;99.90
28839;DHT22;15971;50.772;6.100;2022-08-19T06:17:42;19.60;99.90
28839;DHT22;15971;50.772;6.100;2022-08-19T06:20:12;19.60;99.90
28839;DHT22;15971;50.772;6.100;2022-08-19T06:22:45;19.60;99.90
28839;DHT22;15971;50.772;6.100;2022-08-19T06:25:13;19.60;99.90
28839;DHT22;15971;50.772;6.100;2022-08-19T06:27:39;19.40;99.90
28839;DHT22;15971;50.772;6.100;2022-08-19T06:30:05;19.30;99.90
28839;DHT22;15971;50.772;6.100;2022-08-19T06:32:31;19.30;99.90
28839;DHT22;15971;50.772;6.100;2022-08-19T06:34:57;19.50;99.90
28839;DHT22;15971;50.772;6.100;2022-08-19T06:37:23;19.70;99.90
28839;DHT22;15971;50.772;6.100;2022-08-19T06:39:50;19.90;99.90
28839;DHT22;15971;50.772;6.100;2022-08-19T06:42:16;20.10;99.90
28839;DHT22;15971;50.772;6.100;2022-08-19T06:44:45;20.10;99.90
28839;DHT22;15971;50.772;6.100;2022-08-19T06:47:13;20.30;99.90
28839;DHT22;15971;50.772;6.100;2022-08-19T06:49:40;20.40;99.90
28839;DHT22;15971;50.772;6.100;2022-08-19T06:52:06;20.60;99.90
28839;DHT22;15971;50.772;6.100;2022-08-19T06:54:32;20.60;99.90
28839;DHT22;15971;50.772;6.100;2022-08-19T06:56:58;20.80;99.90
28839;DHT22;15971;50.772;6.100;2022-08-19T06:59:28;21.30;99.90
28839;DHT22;15971;50.772;6.100;2022-08-19T07:01:56;21.50;99.90
28839;DHT22;15971;50.772;6.100;2022-08-19T07:04:26;21.80;99.90
28839;DHT22;15971;50.772;6.100;2022-08-19T07:07:07;22.10;99.90
28839;DHT22;15971;50.772;6.100;2022-08-19T07:09:34;21.60;99.90
28839;DHT22;15971;50.772;6.100;2022-08-19T07:12:03;21.10;99.90
28839;DHT22;15971;50.772;6.100;2022-08-19T07:14:30;21.10;99.90
28839;DHT22;15971;50.772;6.100;2022-08-19T07:16:56;20.80;99.90
28839;DHT22;15971;50.772;6.100;2022-08-19T07:19:24;21.20;99.90
28839;DHT22;15971;50.772;6.100;2022-08-19T07:21:53;21.50;99.90
28839;DHT22;15971;50.772;6.100;2022-08-19T07:24:21;21.80;99.90
28839;DHT22;15971;50.772;6.100;2022-08-19T07:26:50;21.80;99.90
28839;DHT22;15971;50.772;6.100;2022-08-19T07:29:17;22.20;99.90
28839;DHT22;15971;50.772;6.100;2022-08-19T07:31:43;22.10;99.90
28839;DHT22;15971;50.772;6.100;2022-08-19T07:34:10;22.30;99.90
28839;DHT22;15971;50.772;6.100;2022-08-19T07:36:38;22.00;99.90
28839;DHT22;15971;50.772;6.100;2022-08-19T07:39:15;22.00;99.90
28839;DHT22;15971;50.772;6.100;2022-08-19T07:41:42;22.10;99.90
28839;DHT22;15971;50.772;6.100;2022-08-19T07:44:08;22.20;99.90
28839;DHT22;15971;50.772;6.100;2022-08-19T07:46:36;22.40;99.90
28839;DHT22;15971;50.772;6.100;2022-08-19T07:49:04;21.90;99.90
28839;DHT22;15971;50.772;6.100;2022-08-19T07:51:30;21.60;99.90
28839;DHT22;15971;50.772;6.100;2022-08-19T07:53:56;21.70;99.90
28839;DHT22;15971;50.772;6.100;2022-08-19T07:56:22;22.30;99.90
28839;DHT22;15971;50.772;6.100;2022-08-19T07:58:49;22.40;99.90
28839;DHT22;15971;50.772;6.100;2022-08-19T08:01:18;22.60;99.90
28839;DHT22;15971;50.772;6.100;2022-08-19T08:03:45;22.30;99.90
28839;DHT22;15971;50.772;6.100;2022-08-19T08:06:40;21.80;99.90
28839;DHT22;15971;50.772;6.100;2022-08-19T08:09:35;21.90;99.90
28839;DHT22;15971;50.772;6.100;2022-08-19T08:12:07;22.00;99.90
28839;DHT22;15971;50.772;6.100;2022-08-19T08:14:46;22.80;99.90
28839;DHT22;15971;50.772;6.100;2022-08-19T08:17:18;23.40;99.90
28839;DHT22;15971;50.772;6.100;2022-08-19T08:19:45;23.30;99.90
28839;DHT22;15971;50.772;6.100;2022-08-19T08:22:14;23.20;99.90
28839;DHT22;15971;50.772;6.100;2022-08-19T08:25:08;23.20;99.90
28839;DHT22;15971;50.772;6.100;2022-08-19T08:27:39;23.20;99.90
28839;DHT22;15971;50.772;6.100;2022-08-19T08:30:07;23.50;99.90
28839;DHT22;15971;50.772;6.100;2022-08-19T08:32:38;23.90;99.90
28839;DHT22;15971;50.772;6.100;2022-08-19T08:35:05;23.80;99.90
28839;DHT22;15971;50.772;6.100;2022-08-19T08:37:32;23.90;99.90
28839;DHT22;15971;50.772;6.100;2022-08-19T08:39:58;23.90;99.90
28839;DHT22;15971;50.772;6.100;2022-08-19T08:42:29;23.50;99.90
28839;DHT22;15971;50.772;6.100;2022-08-19T08:45:06;23.40;99.90
28839;DHT22;15971;50.772;6.100;2022-08-19T08:47:44;23.20;99.90
28839;DHT22;15971;50.772;6.100;2022-08-19T08:50:26;23.00;99.90
28839;DHT22;15971;50.772;6.100;2022-08-19T08:52:56;23.00;99.90
28839;DHT22;15971;50.772;6.100;2022-08-19T08:55:26;23.00;99.90
28839;DHT22;15971;50.772;6.100;2022-08-19T08:58:06;22.90;99.90
28839;DHT22;15971;50.772;6.100;2022-08-19T09:00:36;22.70;99.90
28839;DHT22;15971;50.772;6.100;2022-08-19T09:03:04;22.80;99.90
28839;DHT22;15971;50.772;6.100;2022-08-19T09:05:58;22.90;99.90
28839;DHT22;15971;50.772;6.100;2022-08-19T09:11:07;23.30;99.90
28839;DHT22;15971;50.772;6.100;2022-08-19T09:13:47;23.30;99.90
28839;DHT22;15971;50.772;6.100;2022-08-19T09:16:20;23.10;99.90
28839;DHT22;15971;50.772;6.100;2022-08-19T09:18:55;23.00;99.90
28839;DHT22;15971;50.772;6.100;2022-08-19T09:21:23;23.10;99.90
28839;DHT22;15971;50.772;6.100;2022-08-19T09:23:51;23.10;99.90
28839;DHT22;15971;50.772;6.100;2022-08-19T09:26:20;23.10;99.90
28839;DHT22;15971;50.772;6.100;2022-08-19T09:28:48;22.80;99.90
28839;DHT22;15971;50.772;6.100;2022-08-19T09:31:17;22.90;99.90
28839;DHT22;15971;50.772;6.100;2022-08-19T09:33:44;22.90;99.90
28839;DHT22;15971;50.772;6.100;2022-08-19T09:36:12;23.20;99.90
28839;DHT22;15971;50.772;6.100;2022-08-19T09:38:39;23.60;99.90
28839;DHT22;15971;50.772;6.100;2022-08-19T09:41:11;23.70;99.90
28839;DHT22;15971;50.772;6.100;2022-08-19T09:43:39;23.90;99.90
28839;DHT22;15971;50.772;6.100;2022-08-19T09:46:07;24.20;99.90
28839;DHT22;15971;50.772;6.100;2022-08-19T09:48:35;24.50;99.90
28839;DHT22;15971;50.772;6.100;2022-08-19T09:51:10;24.60;99.90
28839;DHT22;15971;50.772;6.100;2022-08-19T09:53:36;24.80;99.90
28839;DHT22;15971;50.772;6.100;2022-08-19T09:56:04;25.00;99.90
28839;DHT22;15971;50.772;6.100;2022-08-19T09:58:31;25.40;99.90
28839;DHT22;15971;50.772;6.100;2022-08-19T10:00:58;25.60;99.90
28839;DHT22;15971;50.772;6.100;2022-08-19T10:03:25;25.70;99.90
28839;DHT22;15971;50.772;6.100;2022-08-19T10:05:51;25.90;99.90
28839;DHT22;15971;50.772;6.100;2022-08-19T10:08:22;25.80;99.90
28839;DHT22;15971;50.772;6.100;2022-08-19T10:10:49;25.90;99.90
28839;DHT22;15971;50.772;6.100;2022-08-19T10:13:17;25.90;99.90
28839;DHT22;15971;50.772;6.100;2022-08-19T10:15:44;26.10;99.90
28839;DHT22;15971;50.772;6.100;2022-08-19T10:18:10;26.30;99.90
28839;DHT22;15971;50.772;6.100;2022-08-19T10:20:36;26.20;99.80
28839;DHT22;15971;50.772;6.100;2022-08-19T10:23:02;26.20;99.40
28839;DHT22;15971;50.772;6.100;2022-08-19T10:25:28;26.10;99.50
28839;DHT22;15971;50.772;6.100;2022-08-19T10:27:54;26.10;99.20
28839;DHT22;15971;50.772;6.100;2022-08-19T10:30:21;26.00;98.40
28839;DHT22;15971;50.772;6.100;2022-08-19T10:32:47;25.70;99.00
28839;DHT22;15971;50.772;6.100;2022-08-19T10:35:13;25.70;99.30
28839;DHT22;15971;50.772;6.100;2022-08-19T10:37:39;25.90;99.10
28839;DHT22;15971;50.772;6.100;2022-08-19T10:40:07;25.90;98.70
28839;DHT22;15971;50.772;6.100;2022-08-19T10:42:34;25.50;98.90
28839;DHT22;15971;50.772;6.100;2022-08-19T10:45:01;25.30;98.90
28839;DHT22;15971;50.772;6.100;2022-08-19T10:47:26;25.40;99.10
28839;DHT22;15971;50.772;6.100;2022-08-19T10:49:53;25.50;98.90
28839;DHT22;15971;50.772;6.100;2022-08-19T10:52:39;25.80;97.70
28839;DHT22;15971;50.772;6.100;2022-08-19T10:55:06;25.40;97.90
28839;DHT22;15971;50.772;6.100;2022-08-19T10:57:51;25.30;98.60
28839;DHT22;15971;50.772;6.100;2022-08-19T11:00:18;25.40;98.40
28839;DHT22;15971;50.772;6.100;2022-08-19T11:02:44;25.40;98.30
28839;DHT22;15971;50.772;6.100;2022-08-19T11:05:12;25.40;98.70
28839;DHT22;15971;50.772;6.100;2022-08-19T11:07:38;25.40;98.50
28839;DHT22;15971;50.772;6.100;2022-08-19T11:10:05;25.60;98.10
28839;DHT22;15971;50.772;6.100;2022-08-19T11:12:31;25.30;97.60
28839;DHT22;15971;50.772;6.100;2022-08-19T11:14:58;25.80;97.90
28839;DHT22;15971;50.772;6.100;2022-08-19T11:17:23;26.40;97.60
28839;DHT22;15971;50.772;6.100;2022-08-19T11:19:49;26.80;97.10
28839;DHT22;15971;50.772;6.100;2022-08-19T11:22:15;26.90;96.90
28839;DHT22;15971;50.772;6.100;2022-08-19T11:24:42;26.30;96.60
28839;DHT22;15971;50.772;6.100;2022-08-19T11:27:09;25.80;97.90
28839;DHT22;15971;50.772;6.100;2022-08-19T11:29:38;25.80;97.90
28839;DHT22;15971;50.772;6.100;2022-08-19T11:32:07;25.90;97.70
28839;DHT22;15971;50.772;6.100;2022-08-19T11:34:35;26.10;97.50
28839;DHT22;15971;50.772;6.100;2022-08-19T11:37:01;26.20;97.60
28839;DHT22;15971;50.772;6.100;2022-08-19T11:39:30;26.20;96.60
28839;DHT22;15971;50.772;6.100;2022-08-19T11:41:57;25.90;97.40
28839;DHT22;15971;50.772;6.100;2022-08-19T11:44:24;26.20;97.10
28839;DHT22;15971;50.772;6.100;2022-08-19T11:46:50;26.20;97.40
28839;DHT22;15971;50.772;6.100;2022-08-19T11:49:18;26.20;97.60
28839;DHT22;15971;50.772;6.100;2022-08-19T11:51:45;26.20;97.30
28839;DHT22;15971;50.772;6.100;2022-08-19T11:54:12;26.30;96.60
28839;DHT22;15971;50.772;6.100;2022-08-19T11:56:40;26.20;97.20
28839;DHT22;15971;50.772;6.100;2022-08-19T11:59:06;26.00;97.10
28839;DHT22;15971;50.772;6.100;2022-08-19T12:01:32;25.20;98.20
28839;DHT22;15971;50.772;6.100;2022-08-19T12:03:58;25.20;98.10
28839;DHT22;15971;50.772;6.100;2022-08-19T12:06:27;25.20;98.50
28839;DHT22;15971;50.772;6.100;2022-08-19T12:08:58;24.90;98.80
28839;DHT22;15971;50.772;6.100;2022-08-19T12:11:25;24.80;98.70
28839;DHT22;15971;50.772;6.100;2022-08-19T12:13:51;24.80;97.60
28839;DHT22;15971;50.772;6.100;2022-08-19T12:16:20;24.90;97.20
28839;DHT22;15971;50.772;6.100;2022-08-19T12:18:48;24.90;97.50
28839;DHT22;15971;50.772;6.100;2022-08-19T12:21:19;24.90;97.00
28839;DHT22;15971;50.772;6.100;2022-08-19T12:23:47;24.60;97.50
28839;DHT22;15971;50.772;6.100;2022-08-19T12:26:14;24.50;97.40
28839;DHT22;15971;50.772;6.100;2022-08-19T12:28:39;24.70;97.40
28839;DHT22;15971;50.772;6.100;2022-08-19T12:31:07;25.00;97.20
28839;DHT22;15971;50.772;6.100;2022-08-19T12:33:33;25.20;97.00
28839;DHT22;15971;50.772;6.100;2022-08-19T12:36:05;25.40;96.80
28839;DHT22;15971;50.772;6.100;2022-08-19T12:38:31;25.30;95.90
28839;DHT22;15971;50.772;6.100;2022-08-19T12:40:58;24.90;96.00
28839;DHT22;15971;50.772;6.100;2022-08-19T12:43:24;24.70;95.90
28839;DHT22;15971;50.772;6.100;2022-08-19T12:45:50;25.00;96.30
28839;DHT22;15971;50.772;6.100;2022-08-19T12:48:16;25.20;95.80
28839;DHT22;15971;50.772;6.100;2022-08-19T12:50:44;25.40;96.30
28839;DHT22;15971;50.772;6.100;2022-08-19T12:53:13;25.40;95.60
28839;DHT22;15971;50.772;6.100;2022-08-19T12:55:40;25.30;96.20
28839;DHT22;15971;50.772;6.100;2022-08-19T12:58:06;25.00;96.00
28839;DHT22;15971;50.772;6.100;2022-08-19T13:00:31;24.70;96.80
28839;DHT22;15971;50.772;6.100;2022-08-19T13:02:58;25.00;97.00
28839;DHT22;15971;50.772;6.100;2022-08-19T13:05:28;25.00;96.70
28839;DHT22;15971;50.772;6.100;2022-08-19T13:07:55;25.00;96.90
28839;DHT22;15971;50.772;6.100;2022-08-19T13:10:23;25.10;97.20
28839;DHT22;15971;50.772;6.100;2022-08-19T13:12:51;25.20;97.00
28839;DHT22;15971;50.772;6.100;2022-08-19T13:15:18;25.30;96.70
28839;DHT22;15971;50.772;6.100;2022-08-19T13:17:50;25.20;96.70
28839;DHT22;15971;50.772;6.100;2022-08-19T13:20:18;25.20;97.00
28839;DHT22;15971;50.772;6.100;2022-08-19T13:22:45;25.00;96.90
28839;DHT22;15971;50.772;6.100;2022-08-19T13:25:12;24.90;97.40
28839;DHT22;15971;50.772;6.100;2022-08-19T13:27:38;24.80;97.70
28839;DHT22;15971;50.772;6.100;2022-08-19T13:30:05;24.80;97.50
28839;DHT22;15971;50.772;6.100;2022-08-19T13:32:49;24.90;97.60
28839;DHT22;15971;50.772;6.100;2022-08-19T13:35:33;25.00;97.40
28839;DHT22;15971;50.772;6.100;2022-08-19T13:37:59;25.40;97.00
28839;DHT22;15971;50.772;6.100;2022-08-19T13:40:26;25.70;96.90
28839;DHT22;15971;50.772;6.100;2022-08-19T13:42:54;25.90;96.40
28839;DHT22;15971;50.772;6.100;2022-08-19T13:45:23;25.80;96.40
28839;DHT22;15971;50.772;6.100;2022-08-19T13:47:52;25.40;96.90
28839;DHT22;15971;50.772;6.100;2022-08-19T13:50:21;25.30;97.50
28839;DHT22;15971;50.772;6.100;2022-08-19T13:52:48;25.80;97.20
28839;DHT22;15971;50.772;6.100;2022-08-19T13:55:15;26.00;96.50
28839;DHT22;15971;50.772;6.100;2022-08-19T13:57:41;25.80;96.80
28839;DHT22;15971;50.772;6.100;2022-08-19T14:00:13;25.80;96.90
28839;DHT22;15971;50.772;6.100;2022-08-19T14:02:40;25.70;96.70
28839;DHT22;15971;50.772;6.100;2022-08-19T14:05:07;25.40;96.70
28839;DHT22;15971;50.772;6.100;2022-08-19T14:07:34;25.60;97.00
28839;DHT22;15971;50.772;6.100;2022-08-19T14:10:02;25.70;97.00
28839;DHT22;15971;50.772;6.100;2022-08-19T14:12:28;26.00;96.70
28839;DHT22;15971;50.772;6.100;2022-08-19T14:14:53;26.20;96.50
28839;DHT22;15971;50.772;6.100;2022-08-19T14:17:19;26.30;96.00
28839;DHT22;15971;50.772;6.100;2022-08-19T14:19:44;26.20;96.40
28839;DHT22;15971;50.772;6.100;2022-08-19T14:22:10;26.00;96.20
28839;DHT22;15971;50.772;6.100;2022-08-19T14:24:39;25.80;96.40
28839;DHT22;15971;50.772;6.100;2022-08-19T14:27:07;25.70;96.90
28839;DHT22;15971;50.772;6.100;2022-08-19T14:29:34;25.60;97.10
28839;DHT22;15971;50.772;6.100;2022-08-19T14:31:59;25.80;97.10
28839;DHT22;15971;50.772;6.100;2022-08-19T14:34:26;25.70;97.30
28839;DHT22;15971;50.772;6.100;2022-08-19T14:36:52;25.70;97.60
28839;DHT22;15971;50.772;6.100;2022-08-19T14:39:17;25.30;97.90
28839;DHT22;15971;50.772;6.100;2022-08-19T14:41:43;25.30;98.30
28839;DHT22;15971;50.772;6.100;2022-08-19T14:44:11;25.40;98.70
28839;DHT22;15971;50.772;6.100;2022-08-19T14:46:38;25.20;99.00
28839;DHT22;15971;50.772;6.100;2022-08-19T14:49:05;25.40;98.90
28839;DHT22;15971;50.772;6.100;2022-08-19T14:51:31;25.20;99.40
28839;DHT22;15971;50.772;6.100;2022-08-19T14:53:57;25.50;99.30
28839;DHT22;15971;50.772;6.100;2022-08-19T14:56:26;25.80;99.00
28839;DHT22;15971;50.772;6.100;2022-08-19T14:58:52;25.90;98.90
28839;DHT22;15971;50.772;6.100;2022-08-19T15:01:19;25.90;98.80
28839;DHT22;15971;50.772;6.100;2022-08-19T15:03:47;25.70;99.00
28839;DHT22;15971;50.772;6.100;2022-08-19T15:06:12;25.60;99.60
28839;DHT22;15971;50.772;6.100;2022-08-19T15:08:40;25.80;99.10
28839;DHT22;15971;50.772;6.100;2022-08-19T15:11:09;26.00;98.60
28839;DHT22;15971;50.772;6.100;2022-08-19T15:13:35;25.70;99.00
28839;DHT22;15971;50.772;6.100;2022-08-19T15:16:01;25.80;99.30
28839;DHT22;15971;50.772;6.100;2022-08-19T15:18:26;26.00;98.70
28839;DHT22;15971;50.772;6.100;2022-08-19T15:20:52;26.20;98.40
28839;DHT22;15971;50.772;6.100;2022-08-19T15:23:20;26.40;98.50
28839;DHT22;15971;50.772;6.100;2022-08-19T15:25:46;26.50;98.30
28839;DHT22;15971;50.772;6.100;2022-08-19T15:28:12;26.20;98.80
28839;DHT22;15971;50.772;6.100;2022-08-19T15:30:39;26.40;98.60
28839;DHT22;15971;50.772;6.100;2022-08-19T15:33:06;26.30;98.70
28839;DHT22;15971;50.772;6.100;2022-08-19T15:35:32;26.20;98.90
28839;DHT22;15971;50.772;6.100;2022-08-19T15:37:57;26.10;99.10